sensor_id;sensor_type;location;lat;lon;timestamp;pressure;altitude;pressure_sealevel;temperature;humidity
24302;BME280;12421;49.732;20.078;2023-07-13T00:00:26;96521.67;;;18.99;87.07
24302;BME280;12421;49.732;20.078;2023-07-13T00:10:52;96513.65;;;18.99;87.66
24302;BME280;12421;49.732;20.078;2023-07-13T00:20:57;96497.40;;;19.01;88.34
24302;BME280;12421;49.732;20.078;2023-07-13T00:31:09;96501.38;;;18.96;89.04
24302;BME280;12421;49.732;20.078;2023-07-13T00:41:14;96591.58;;;19.03;89.88
24302;BME280;12421;49.732;20.078;2023-07-13T00:51:23;96603.40;;;19.08;90.70
24302;BME280;12421;49.732;20.078;2023-07-13T01:01:35;96589.34;;;19.09;89.33
24302;BME280;12421;49.732;20.078;2023-07-13T01:11:40;96562.17;;;19.04;89.52
24302;BME280;12421;49.732;20.078;2023-07-13T01:21:49;96607.50;;;19.12;89.66
24302;BME280;12421;49.732;20.078;2023-07-13T01:31:53;96630.78;;;19.13;89.26
24302;BME280;12421;49.732;20.078;2023-07-13T01:41:57;96596.66;;;19.05;89.59
24302;BME280;12421;49.732;20.078;2023-07-13T01:52:00;96588.97;;;19.06;89.69
24302;BME280;12421;49.732;20.078;2023-07-13T02:02:04;96593.67;;;19.08;89.66
24302;BME280;12421;49.732;20.078;2023-07-13T02:12:08;96592.73;;;19.22;89.32
24302;BME280;12421;49.732;20.078;2023-07-13T02:22:12;96569.80;;;19.22;88.84
24302;BME280;12421;49.732;20.078;2023-07-13T02:32:15;96543.08;;;19.09;88.00
24302;BME280;12421;49.732;20.078;2023-07-13T02:42:19;96543.92;;;18.96;87.88
24302;BME280;12421;49.732;20.078;2023-07-13T02:52:22;96541.90;;;18.86;87.40
24302;BME280;12421;49.732;20.078;2023-07-13T03:02:26;96547.30;;;18.71;87.76
24302;BME280;12421;49.732;20.078;2023-07-13T03:12:32;96528.38;;;18.62;88.11
24302;BME280;12421;49.732;20.078;2023-07-13T03:22:38;96538.51;;;18.69;88.63
24302;BME280;12421;49.732;20.078;2023-07-13T03:32:43;96542.55;;;18.80;88.12
24302;BME280;12421;49.732;20.078;2023-07-13T03:42:46;96565.33;;;18.94;88.08
24302;BME280;12421;49.732;20.078;2023-07-13T03:52:52;96569.11;;;19.07;87.36
24302;BME280;12421;49.732;20.078;2023-07-13T04:02:55;96560.05;;;19.07;86.76
24302;BME280;12421;49.732;20.078;2023-07-13T04:12:59;96552.32;;;19.02;86.86
24302;BME280;12421;49.732;20.078;2023-07-13T04:23:04;96566.20;;;19.02;87.04
24302;BME280;12421;49.732;20.078;2023-07-13T04:33:07;96571.12;;;19.28;87.56
24302;BME280;12421;49.732;20.078;2023-07-13T04:43:12;96569.28;;;19.50;86.75
24302;BME280;12421;49.732;20.078;2023-07-13T04:53:15;96558.28;;;19.59;86.30
24302;BME280;12421;49.732;20.078;2023-07-13T05:03:18;96529.82;;;20.02;85.92
24302;BME280;12421;49.732;20.078;2023-07-13T05:13:22;96516.75;;;20.38;84.66
24302;BME280;12421;49.732;20.078;2023-07-13T05:23:30;96504.04;;;21.03;82.82
24302;BME280;12421;49.732;20.078;2023-07-13T05:33:34;96488.36;;;22.41;79.48
24302;BME280;12421;49.732;20.078;2023-07-13T05:43:38;96486.91;;;23.96;75.79
24302;BME280;12421;49.732;20.078;2023-07-13T05:53:41;96479.31;;;24.86;73.42
24302;BME280;12421;49.732;20.078;2023-07-13T06:03:44;96480.58;;;25.21;73.00
24302;BME280;12421;49.732;20.078;2023-07-13T06:13:48;96490.55;;;25.57;72.52
24302;BME280;12421;49.732;20.078;2023-07-13T06:23:51;96486.70;;;25.76;71.77
24302;BME280;12421;49.732;20.078;2023-07-13T06:33:55;96494.70;;;26.27;69.60
24302;BME280;12421;49.732;20.078;2023-07-13T06:43:59;96505.04;;;26.94;67.59
24302;BME280;12421;49.732;20.078;2023-07-13T06:54:03;96503.90;;;27.25;68.29
24302;BME280;12421;49.732;20.078;2023-07-13T07:04:08;96488.20;;;27.84;66.96
24302;BME280;12421;49.732;20.078;2023-07-13T07:14:11;96482.82;;;28.75;66.36
24302;BME280;12421;49.732;20.078;2023-07-13T07:24:14;96475.63;;;28.96;64.32
24302;BME280;12421;49.732;20.078;2023-07-13T07:34:19;96485.95;;;28.57;64.15
24302;BME280;12421;49.732;20.078;2023-07-13T07:44:22;96487.36;;;28.20;64.53
24302;BME280;12421;49.732;20.078;2023-07-13T07:54:26;96478.20;;;27.79;65.01
24302;BME280;12421;49.732;20.078;2023-07-13T08:04:49;96474.08;;;27.78;65.31
24302;BME280;12421;49.732;20.078;2023-07-13T08:14:55;96485.33;;;27.92;65.65
24302;BME280;12421;49.732;20.078;2023-07-13T08:25:01;96484.45;;;28.22;65.77
24302;BME280;12421;49.732;20.078;2023-07-13T08:35:05;96474.48;;;28.29;64.50
24302;BME280;12421;49.732;20.078;2023-07-13T08:55:29;96468.30;;;27.43;65.25
24302;BME280;12421;49.732;20.078;2023-07-13T09:05:40;96455.04;;;26.87;66.64
24302;BME280;12421;49.732;20.078;2023-07-13T09:15:46;96447.98;;;26.24;67.73
24302;BME280;12421;49.732;20.078;2023-07-13T09:26:04;96438.29;;;25.65;68.70
24302;BME280;12421;49.732;20.078;2023-07-13T09:36:23;96437.85;;;25.04;70.61
24302;BME280;12421;49.732;20.078;2023-07-13T09:46:28;96461.87;;;24.39;72.72
24302;BME280;12421;49.732;20.078;2023-07-13T09:56:31;96484.63;;;23.90;74.32
24302;BME280;12421;49.732;20.078;2023-07-13T10:06:36;96491.45;;;23.44;76.08
24302;BME280;12421;49.732;20.078;2023-07-13T10:16:41;96489.52;;;23.31;77.82
24302;BME280;12421;49.732;20.078;2023-07-13T10:27:15;96527.38;;;23.03;76.37
24302;BME280;12421;49.732;20.078;2023-07-13T10:37:22;96545.31;;;22.26;72.48
24302;BME280;12421;49.732;20.078;2023-07-13T10:47:28;96570.92;;;21.73;75.20
24302;BME280;12421;49.732;20.078;2023-07-13T10:57:41;96564.51;;;20.95;75.52
24302;BME280;12421;49.732;20.078;2023-07-13T11:07:55;96580.16;;;20.72;78.19
24302;BME280;12421;49.732;20.078;2023-07-13T11:18:04;96594.23;;;20.62;78.67
24302;BME280;12421;49.732;20.078;2023-07-13T11:38:39;96629.73;;;20.23;78.80
24302;BME280;12421;49.732;20.078;2023-07-13T11:48:45;96651.39;;;20.11;79.77
24302;BME280;12421;49.732;20.078;2023-07-13T11:58:55;96644.51;;;19.87;80.08
24302;BME280;12421;49.732;20.078;2023-07-13T12:09:01;96659.23;;;19.81;80.85
24302;BME280;12421;49.732;20.078;2023-07-13T12:19:16;96687.76;;;19.53;81.34
24302;BME280;12421;49.732;20.078;2023-07-13T12:29:20;96713.80;;;19.30;82.93
24302;BME280;12421;49.732;20.078;2023-07-13T12:39:34;96722.54;;;19.30;84.29
24302;BME280;12421;49.732;20.078;2023-07-13T12:49:46;96720.73;;;19.49;84.24
24302;BME280;12421;49.732;20.078;2023-07-13T12:59:54;96717.37;;;19.76;84.14
24302;BME280;12421;49.732;20.078;2023-07-13T13:09:57;96706.20;;;20.06;82.83
24302;BME280;12421;49.732;20.078;2023-07-13T13:20:01;96697.33;;;20.52;82.80
24302;BME280;12421;49.732;20.078;2023-07-13T13:30:11;96704.45;;;20.92;82.10
24302;BME280;12421;49.732;20.078;2023-07-13T13:40:18;96709.79;;;21.24;81.16
24302;BME280;12421;49.732;20.078;2023-07-13T13:50:22;96706.51;;;21.68;78.44
24302;BME280;12421;49.732;20.078;2023-07-13T14:00:26;96705.46;;;22.13;75.89
24302;BME280;12421;49.732;20.078;2023-07-13T14:10:30;96710.75;;;22.55;74.08
24302;BME280;12421;49.732;20.078;2023-07-13T14:20:33;96710.05;;;22.98;72.35
24302;BME280;12421;49.732;20.078;2023-07-13T14:30:36;96696.65;;;23.71;70.56
24302;BME280;12421;49.732;20.078;2023-07-13T14:40:40;96692.33;;;24.03;69.89
24302;BME280;12421;49.732;20.078;2023-07-13T14:50:45;96692.01;;;24.26;68.25
24302;BME280;12421;49.732;20.078;2023-07-13T15:00:49;96697.65;;;24.47;67.77
24302;BME280;12421;49.732;20.078;2023-07-13T15:10:54;96716.08;;;23.83;68.89
24302;BME280;12421;49.732;20.078;2023-07-13T15:21:00;96724.80;;;23.68;69.33
24302;BME280;12421;49.732;20.078;2023-07-13T15:31:18;96722.30;;;24.11;67.77
24302;BME280;12421;49.732;20.078;2023-07-13T15:41:27;96735.38;;;24.08;66.52
24302;BME280;12421;49.732;20.078;2023-07-13T15:51:34;96754.61;;;23.57;66.53
24302;BME280;12421;49.732;20.078;2023-07-13T16:01:39;96752.61;;;23.15;65.88
24302;BME280;12421;49.732;20.078;2023-07-13T16:11:45;96769.89;;;23.03;67.09
24302;BME280;12421;49.732;20.078;2023-07-13T16:21:50;96779.94;;;22.88;67.56
24302;BME280;12421;49.732;20.078;2023-07-13T16:32:04;96778.81;;;22.72;68.93
24302;BME280;12421;49.732;20.078;2023-07-13T16:42:13;96783.39;;;22.59;68.89
24302;BME280;12421;49.732;20.078;2023-07-13T16:52:18;96789.99;;;22.47;69.90
24302;BME280;12421;49.732;20.078;2023-07-13T17:12:27;96808.02;;;21.96;71.12
24302;BME280;12421;49.732;20.078;2023-07-13T17:22:30;96813.08;;;21.79;71.27
24302;BME280;12421;49.732;20.078;2023-07-13T17:32:35;96804.68;;;21.48;71.68
24302;BME280;12421;49.732;20.078;2023-07-13T17:42:39;96793.02;;;21.24;72.57
24302;BME280;12421;49.732;20.078;2023-07-13T17:52:43;96783.52;;;20.88;72.65
24302;BME280;12421;49.732;20.078;2023-07-13T18:02:46;96781.92;;;20.62;74.83
24302;BME280;12421;49.732;20.078;2023-07-13T18:12:52;96779.52;;;20.53;75.20
24302;BME280;12421;49.732;20.078;2023-07-13T18:22:56;96795.98;;;20.35;75.84
24302;BME280;12421;49.732;20.078;2023-07-13T18:33:01;96812.13;;;20.09;76.61
24302;BME280;12421;49.732;20.078;2023-07-13T18:43:04;96828.33;;;19.84;77.44
24302;BME280;12421;49.732;20.078;2023-07-13T18:53:13;96841.94;;;19.68;78.21
24302;BME280;12421;49.732;20.078;2023-07-13T19:03:20;96848.88;;;19.38;78.59
24302;BME280;12421;49.732;20.078;2023-07-13T19:13:28;96869.17;;;19.11;79.27
24302;BME280;12421;49.732;20.078;2023-07-13T19:23:37;96876.00;;;18.86;80.15
24302;BME280;12421;49.732;20.078;2023-07-13T19:33:42;96878.27;;;18.55;80.75
24302;BME280;12421;49.732;20.078;2023-07-13T19:43:47;96888.23;;;18.38;81.28
24302;BME280;12421;49.732;20.078;2023-07-13T19:53:56;96899.99;;;18.24;81.67
24302;BME280;12421;49.732;20.078;2023-07-13T20:04:02;96898.19;;;18.12;82.04
24302;BME280;12421;49.732;20.078;2023-07-13T20:14:23;96902.08;;;17.99;82.46
24302;BME280;12421;49.732;20.078;2023-07-13T20:24:27;96904.15;;;17.88;83.44
24302;BME280;12421;49.732;20.078;2023-07-13T20:34:36;96899.66;;;17.98;83.86
24302;BME280;12421;49.732;20.078;2023-07-13T20:44:41;96905.38;;;17.97;83.52
24302;BME280;12421;49.732;20.078;2023-07-13T20:54:45;96918.16;;;17.89;83.18
24302;BME280;12421;49.732;20.078;2023-07-13T21:04:49;96937.65;;;17.76;83.42
24302;BME280;12421;49.732;20.078;2023-07-13T21:14:53;96939.15;;;17.56;83.13
24302;BME280;12421;49.732;20.078;2023-07-13T21:24:56;96939.05;;;17.26;84.08
24302;BME280;12421;49.732;20.078;2023-07-13T21:35:00;96936.98;;;17.19;84.97
24302;BME280;12421;49.732;20.078;2023-07-13T21:45:22;96949.48;;;17.26;85.27
24302;BME280;12421;49.732;20.078;2023-07-13T21:55:26;96953.52;;;17.32;85.60
24302;BME280;12421;49.732;20.078;2023-07-13T22:05:31;96953.61;;;17.25;85.78
24302;BME280;12421;49.732;20.078;2023-07-13T22:15:35;96958.66;;;17.13;86.18
24302;BME280;12421;49.732;20.078;2023-07-13T22:25:39;96961.63;;;17.10;86.63
24302;BME280;12421;49.732;20.078;2023-07-13T22:35:45;96958.90;;;17.30;87.14
24302;BME280;12421;49.732;20.078;2023-07-13T22:45:54;96948.00;;;17.43;86.58
24302;BME280;12421;49.732;20.078;2023-07-13T22:55:59;96952.40;;;17.53;86.90
24302;BME280;12421;49.732;20.078;2023-07-13T23:06:03;96950.44;;;17.58;87.33
24302;BME280;12421;49.732;20.078;2023-07-13T23:16:11;96962.66;;;17.73;87.25
24302;BME280;12421;49.732;20.078;2023-07-13T23:26:24;96966.88;;;17.73;87.43
24302;BME280;12421;49.732;20.078;2023-07-13T23:36:28;96975.04;;;17.65;86.70
24302;BME280;12421;49.732;20.078;2023-07-13T23:46:40;96981.34;;;17.58;87.08
24302;BME280;12421;49.732;20.078;2023-07-13T23:56:45;96986.44;;;17.59;87.27
